Floyds Knobs, Indiana
Current Conditions -  °F | °C
As of 6:56 AM on Saturday 20 Dec 2014 (Local Time) from KSDF Reporting Station
Overcast Overcast  
Wind Chill: 24°   Ceiling: 9500
Heat Index: 30°   Visibility: 8mi
Dew Point: 24°   Wind: 6mph
Humidity: 79%   Direction: 20°NNE
Pressure: 30.27"   Gusts: NA
Location:  38.32°N, 85.87°W
Report Text: KSDF 201156Z 02005KT 8SM OVC095 M01/M04 A3027 RMK AO2 SLP257 T10111044 11006 21011 53002
Loading
Personal Weather Stations






























Interactive Weather Map New forecast layout! Learn more

10-Day Weather Forecast

Advertisements
Track Severe Weather on mobile